Nearby METAR Reports

 

KSJC - San Jose, California, USA
Distance from station: NE 9mi, 14km
Updated: Tue, 29-Nov-2022 7:53pm PST
Clear
Clear
 Wind from NW
Wind: NW 6 mph , 9 km/h
Temperature: 48°F , 9°C
Wind Chill: 45°F , 7°C
Dew Point: 39°F , 4°C
Humidity: 71%
Barometer: 30.03 inHg , 1016.9 hPa
Clouds: Clear
Visibility: 10 miles , 16 km
2022/11/30 03:53 KSJC 300353Z 32005KT 10SM CLR 09/04 A3003 RMK AO2 SLP167 T00940044
KPAO - Palo Alto, California, USA
Distance from station: NNW 14mi, 23km
Updated: Tue, 29-Nov-2022 6:47pm PST
NOT Current
Clear
Clear
 Wind from NW
Wind: NW 6 mph , 9 km/h
Temperature: 45°F , 7°C
Wind Chill: 42°F , 6°C
Dew Point: 37°F , 3°C
Humidity: 76%
Barometer: 30.03 inHg , 1016.9 hPa
Clouds: Clear
Visibility: 10 miles , 16 km
2022/11/30 02:47 KPAO 300247Z 32005KT 10SM SKC 07/03 A3003
 
KRHV - San Jose/Reid, California, USA
Distance from station: ENE 12mi, 19km
Updated: Tue, 29-Nov-2022 8:47pm PST
Clear
Clear
 Wind from calm
Wind: Calm
Temperature: 45°F , 7°C
Dew Point: 34°F , 1°C
Humidity: 66%
Barometer: 30.04 inHg , 1017.3 hPa
Clouds: Clear
Visibility: 10 miles , 16 km
2022/11/30 04:47 KRHV 300447Z 00000KT 10SM SKC 07/01 A3004
KOAK - Oakland, California, USA
Distance from station: NNW 31mi, 50km
Updated: Tue, 29-Nov-2022 7:53pm PST
Few Clouds
Few Clouds
 Wind from NE
Wind: NE 3 mph , 6 km/h
Temperature: 46°F , 8°C
Dew Point: 37°F , 3°C
Humidity: 71%
Barometer: 30.03 inHg , 1016.9 hPa
Clouds: Few Clouds
Visibility: 10 miles , 16 km
Cloud details: Few Clouds 18000 ft
2022/11/30 03:53 KOAK 300353Z 04003KT 10SM FEW180 08/03 A3003 RMK AO2 SLP170 T00780028
 
KSQL - San Carlos Airpo, California, USA
Distance from station: NW 21mi, 34km
Updated: Tue, 29-Nov-2022 8:47pm PST
Few Clouds
Few Clouds
 Wind from calm
Wind: Calm
Temperature: 45°F , 7°C
Dew Point: 36°F , 2°C
Humidity: 71%
Barometer: 30.04 inHg , 1017.3 hPa
Clouds: Few Clouds
Visibility: 10 miles , 16 km
Cloud details: Few Clouds 20000 ft
2022/11/30 04:47 KSQL 300447Z 00000KT 10SM FEW200 07/02 A3004 RMK LAST
KSFO - San Francisco, California, USA
Distance from station: NW 30mi, 49km
Updated: Tue, 29-Nov-2022 7:56pm PST
Few Clouds
Few Clouds
 Wind from W
Wind: W 10 mph , 17 km/h
Temperature: 48°F , 9°C
Wind Chill: 44°F , 7°C
Dew Point: 39°F , 4°C
Humidity: 71%
Barometer: 30.02 inHg , 1016.6 hPa
Clouds: Few Clouds
Visibility: 10 miles , 16 km
Cloud details: Few Clouds 20000 ft
2022/11/30 03:56 KSFO 300356Z 28009KT 10SM FEW200 09/04 A3002 RMK AO2 SLP166 T00940039
 
KE16 - San Martin, California, USA
Distance from station: ESE 27mi, 43km
Updated: Tue, 29-Nov-2022 8:35pm PST
Clear
Clear
 Wind from calm
Wind: Calm
Temperature: 45°F , 7°C
Dew Point: 32°F , 0°C
Humidity: 61%
Barometer: 30.05 inHg , 1017.6 hPa
Clouds: Clear
Visibility: 10 miles , 16 km
2022/11/30 04:35 KE16 300435Z AUTO 00000KT 10SM CLR 07/00 A3005 RMK AO2 PWINO PNO
KWVI - Watsonville, California, USA
Distance from station: SSE 27mi, 44km
Updated: Tue, 29-Nov-2022 7:53pm PST
Clear
Clear
 Wind from NNW
Wind: NNW 3 mph , 6 km/h
Temperature: 43°F , 6°C
Dew Point: 37°F , 3°C
Humidity: 81%
Barometer: 30.03 inHg , 1016.9 hPa
Clouds: Clear
Visibility: 10 miles , 16 km
2022/11/30 03:53 KWVI 300353Z AUTO 33003KT 10SM CLR 06/03 A3003 RMK AO2 SLP169 T00610033
 
KHAF - Half Moon Bay, California, USA
Distance from station: WNW 31mi, 50km
Updated: Tue, 29-Nov-2022 8:35pm PST
Clear
Clear
 Wind from calm
Wind: Calm
Temperature: 37°F , 3°C
Dew Point: 34°F , 1°C
Humidity: 87%
Barometer: 30.03 inHg , 1016.9 hPa
Clouds: Clear
Visibility: 10 miles , 16 km
2022/11/30 04:35 KHAF 300435Z AUTO 00000KT 10SM CLR 03/01 A3003 RMK AO2
KHWD - Hayward, California, USA
Distance from station: N 28mi, 44km
Updated: Tue, 29-Nov-2022 7:54pm PST
Clear
Clear
 Wind from NE
Wind: NE 7 mph , 11 km/h
Temperature: 46°F , 8°C
Wind Chill: 42°F , 6°C
Dew Point: 36°F , 2°C
Humidity: 66%
Barometer: 30.02 inHg , 1016.6 hPa
Clouds: Clear
2022/11/30 03:54 KHWD 300354Z 05006KT CLR 08/02 A3002 RMK AO2 SLP176 T00780017 $
 
KLVK - Livermore, California, USA
Distance from station: NNE 31mi, 51km
Updated: Tue, 29-Nov-2022 7:53pm PST
Clear
Clear
 Wind from ENE
Wind: ENE 3 mph , 6 km/h
Temperature: 41°F , 5°C
Dew Point: 25°F , -4°C
Humidity: 53%
Barometer: 30.02 inHg , 1016.6 hPa
Clouds: Clear
Visibility: 10 miles , 16 km
2022/11/30 03:53 KLVK 300353Z 06003KT 10SM CLR 05/M04 A3002 RMK AO2 SLP166 T00501039